createdAt,value
2022-09-05T00:00:31.164Z,75796.88
2022-09-05T00:03:13.451Z,75786.69
2022-09-05T00:06:06.444Z,75784.66
2022-09-05T00:08:45.659Z,75794.84
2022-09-05T00:11:42.026Z,75794.84
2022-09-05T00:15:15.300Z,75796.88
2022-09-05T00:17:45.917Z,75805.03
2022-09-05T00:24:20.594Z,75813.19
2022-09-05T00:24:27.484Z,75821.34
2022-09-05T00:26:32.594Z,75819.31
2022-09-05T00:29:14.904Z,75813.19
2022-09-05T00:32:01.645Z,75811.16
2022-09-05T00:34:59.831Z,75809.13
2022-09-05T00:37:33.526Z,75811.16
2022-09-05T00:40:26.444Z,75821.34
2022-09-05T00:42:57.873Z,75821.34
2022-09-05T00:45:31.917Z,75821.34
2022-09-05T00:48:08.572Z,75817.25
2022-09-05T00:50:44.647Z,75831.53
2022-09-05T00:53:20.640Z,75837.66
2022-09-05T00:56:00.464Z,75845.81
2022-09-05T00:58:57.368Z,75837.66
2022-09-05T01:01:32.357Z,75847.84
2022-09-05T01:04:18.424Z,75853.97
2022-09-05T01:07:03.051Z,75853.97
2022-09-05T01:09:53.706Z,75849.88
2022-09-05T01:12:43.946Z,75853.97
2022-09-05T01:15:32.544Z,75872.31
2022-09-05T01:18:31.119Z,75884.53
2022-09-05T01:21:33.738Z,75886.56
2022-09-05T01:24:17.359Z,75886.56
2022-09-05T01:27:19.707Z,75878.44
2022-09-05T01:29:54.400Z,75870.28
2022-09-05T01:32:31.555Z,75870.28
2022-09-05T01:35:25.779Z,75866.19
2022-09-05T01:37:59.865Z,75868.22
2022-09-05T01:40:37.662Z,75866.19
2022-09-05T01:43:18.472Z,75866.19
2022-09-05T01:45:52.976Z,75864.16
2022-09-05T01:48:33.857Z,75858.03
2022-09-05T01:51:28.686Z,75858.03
2022-09-05T01:54:23.718Z,75853.97
2022-09-05T01:57:03.406Z,75849.88
2022-09-05T01:59:46.027Z,75843.75
2022-09-05T02:02:23.951Z,75847.84
2022-09-05T02:05:09.455Z,75841.72
2022-09-05T02:07:53.851Z,75845.81
2022-09-05T02:11:01.979Z,75841.72
2022-09-05T02:13:44.389Z,75856.00
2022-09-05T02:16:22.349Z,75856.00
2022-09-05T02:19:01.234Z,75845.81
2022-09-05T02:21:56.414Z,75841.72
2022-09-05T02:24:34.296Z,75845.81
2022-09-05T02:27:45.847Z,75847.84
2022-09-05T02:30:10.253Z,75853.97
2022-09-05T02:32:52.243Z,75853.97
2022-09-05T02:35:31.122Z,75849.88
2022-09-05T02:43:28.946Z,75858.03
2022-09-05T02:45:17.415Z,75851.91
2022-09-05T02:45:20.931Z,75860.06
2022-09-05T02:46:50.784Z,75853.97
2022-09-05T02:50:46.733Z,75858.03
2022-09-05T02:57:32.760Z,75868.22
2022-09-05T02:57:43.273Z,75870.28
2022-09-05T02:58:24.899Z,75876.38
2022-09-05T03:01:03.904Z,75868.22
2022-09-05T03:03:40.254Z,75866.19
2022-09-05T03:06:34.231Z,75870.28
2022-09-05T03:09:28.902Z,75862.13
2022-09-05T03:12:33.113Z,75862.13
2022-09-05T03:15:40.089Z,75866.19
2022-09-05T03:19:09.298Z,75870.28
2022-09-05T03:22:00.158Z,75866.19
2022-09-05T03:24:55.934Z,75866.19
2022-09-05T03:27:49.138Z,75862.13
2022-09-05T03:30:21.083Z,75853.97
2022-09-05T03:33:25.733Z,75845.81
2022-09-05T03:36:33.765Z,75845.81
2022-09-05T03:39:41.811Z,75845.81
2022-09-05T03:42:42.680Z,75837.66
2022-09-05T03:45:45.630Z,75831.53
2022-09-05T03:48:41.614Z,75831.53
2022-09-05T03:57:04.925Z,75829.50
2022-09-05T03:57:25.522Z,75829.50
2022-09-05T03:57:42.806Z,75829.50
2022-09-05T04:00:21.604Z,75825.41
2022-09-05T04:08:10.981Z,75821.34
2022-09-05T04:08:16.624Z,75817.25
2022-09-05T04:08:50.317Z,75815.22
2022-09-05T04:11:29.130Z,75807.06
2022-09-05T04:14:01.511Z,75807.06
2022-09-05T04:16:33.462Z,75800.97
2022-09-05T04:19:11.714Z,75805.03
2022-09-05T04:21:47.068Z,75811.16
2022-09-05T04:24:27.043Z,75805.03
2022-09-05T04:27:06.294Z,75807.06
2022-09-05T04:29:44.797Z,75809.13
2022-09-05T04:32:23.949Z,75811.16
2022-09-05T04:35:09.052Z,75807.06
2022-09-05T04:37:48.531Z,75805.03
2022-09-05T04:40:38.454Z,75809.13
2022-09-05T04:43:09.078Z,75792.81
2022-09-05T04:45:42.767Z,75786.69
2022-09-05T04:48:23.804Z,75794.84
2022-09-05T04:51:08.398Z,75790.75
2022-09-05T04:54:00.148Z,75794.84
2022-09-05T04:56:32.235Z,75803.00
2022-09-05T05:00:56.317Z,75805.03
2022-09-05T05:06:01.927Z,75811.16
2022-09-05T05:06:15.489Z,75817.25
2022-09-05T05:07:45.797Z,75809.13
2022-09-05T05:12:37.784Z,75815.22
2022-09-05T05:18:02.496Z,75809.13
2022-09-05T05:18:13.924Z,75813.19
2022-09-05T05:19:18.681Z,75811.16
2022-09-05T05:21:52.353Z,75813.19
2022-09-05T05:24:25.041Z,75813.19
2022-09-05T05:26:59.040Z,75813.19
2022-09-05T05:29:36.779Z,75809.13
2022-09-05T05:32:07.160Z,75807.06
2022-09-05T05:34:43.624Z,75796.88
2022-09-05T05:37:18.273Z,75780.56
2022-09-05T05:39:50.221Z,75778.53
2022-09-05T05:42:23.355Z,75774.47
2022-09-05T05:44:54.865Z,75780.56
2022-09-05T05:47:31.913Z,75772.41
2022-09-05T05:50:11.465Z,75770.38
2022-09-05T05:53:00.781Z,75764.25
2022-09-05T05:56:06.297Z,75754.06
2022-09-05T05:58:47.243Z,75747.94
2022-09-05T06:02:05.455Z,75739.81
2022-09-05T06:05:11.495Z,75745.91
2022-09-05T06:09:45.936Z,75735.72
2022-09-05T06:14:49.079Z,75731.66
2022-09-05T06:15:06.829Z,75723.50
2022-09-05T06:18:00.543Z,75719.41
2022-09-05T06:22:11.351Z,75715.34
2022-09-05T06:24:53.707Z,75705.16
2022-09-05T06:28:01.710Z,75701.06
2022-09-05T06:30:37.470Z,75699.03
2022-09-05T06:33:18.940Z,75697.00
2022-09-05T06:35:59.877Z,75699.03
2022-09-05T06:38:52.981Z,75682.72
2022-09-05T06:41:31.524Z,75686.78
2022-09-05T06:44:19.212Z,75694.94
2022-09-05T06:47:22.060Z,75699.03
2022-09-05T06:50:26.988Z,75697.00
2022-09-05T06:53:25.525Z,75701.06
2022-09-05T06:56:28.353Z,75694.94
2022-09-05T06:59:35.798Z,75692.91
2022-09-05T07:02:12.029Z,75686.78
2022-09-05T07:05:37.877Z,75690.88
2022-09-05T07:07:40.339Z,75686.78
2022-09-05T07:10:37.441Z,75680.69
2022-09-05T07:13:14.502Z,75684.75
2022-09-05T07:15:54.331Z,75684.75
2022-09-05T07:18:29.471Z,75678.63
2022-09-05T07:21:16.493Z,75678.63
2022-09-05T07:24:06.669Z,75690.88
2022-09-05T07:26:52.551Z,75686.78
2022-09-05T07:29:27.636Z,75688.84
2022-09-05T07:31:57.361Z,75682.72
2022-09-05T07:34:29.593Z,75686.78
2022-09-05T07:37:14.587Z,75684.75
2022-09-05T07:39:48.788Z,75682.72
2022-09-05T07:42:23.336Z,75686.78
2022-09-05T07:44:56.522Z,75682.72
2022-09-05T07:47:30.097Z,75676.59
2022-09-05T07:50:40.197Z,75670.50
2022-09-05T07:56:50.044Z,75658.25
2022-09-05T07:57:04.796Z,75662.34
2022-09-05T07:58:44.069Z,75662.34
2022-09-05T08:01:15.331Z,75654.19
2022-09-05T08:03:44.396Z,75641.94
2022-09-05T08:06:35.910Z,75631.75
2022-09-05T08:10:09.315Z,75639.91
2022-09-05T08:12:09.756Z,75629.72
2022-09-05T08:14:52.789Z,75617.50
2022-09-05T08:17:30.165Z,75613.41
2022-09-05T08:20:23.168Z,75609.34
2022-09-05T08:23:00.524Z,75617.50
2022-09-05T08:25:47.124Z,75625.63
2022-09-05T08:28:25.860Z,75615.44
2022-09-05T08:31:12.606Z,75601.19
2022-09-05T08:33:43.461Z,75595.06
2022-09-05T08:36:22.648Z,75593.03
2022-09-05T08:38:51.152Z,75576.72
2022-09-05T08:41:42.973Z,75572.63
2022-09-05T08:46:44.298Z,75560.41
2022-09-05T08:47:19.359Z,75540.03
2022-09-05T08:50:07.248Z,75531.88
2022-09-05T08:52:47.873Z,75515.56
2022-09-05T08:55:24.911Z,75521.69
2022-09-05T08:58:30.124Z,75511.47
2022-09-05T09:01:12.932Z,75503.34
2022-09-05T09:03:56.230Z,75491.09
2022-09-05T09:07:46.954Z,75482.94
2022-09-05T09:09:45.771Z,75480.91
2022-09-05T09:12:28.253Z,75462.56
2022-09-05T09:15:00.792Z,75444.22
2022-09-05T09:17:42.848Z,75421.78
2022-09-05T09:20:33.578Z,75405.50
2022-09-05T09:23:06.497Z,75403.44
2022-09-05T09:26:06.559Z,75376.94
2022-09-05T09:28:47.932Z,75356.56
2022-09-05T09:31:46.660Z,75344.34
2022-09-05T09:34:39.536Z,75330.06
2022-09-05T09:38:01.156Z,75309.69
2022-09-05T09:40:55.203Z,75279.09
2022-09-05T09:43:39.803Z,75258.72
2022-09-05T09:46:22.372Z,75238.34
2022-09-05T09:49:04.783Z,75215.91
2022-09-05T09:52:19.434Z,75197.56
2022-09-05T09:55:24.709Z,75183.31
2022-09-05T09:58:13.542Z,75164.97
2022-09-05T10:00:51.534Z,75160.88
2022-09-05T10:10:09.946Z,75146.63
2022-09-05T10:10:51.894Z,75118.09
2022-09-05T10:10:56.272Z,75118.09
2022-09-05T10:13:26.838Z,75093.63
2022-09-05T10:16:30.309Z,75083.44
2022-09-05T10:20:07.789Z,75054.91
2022-09-05T10:22:36.166Z,75030.44
2022-09-05T10:25:33.308Z,75014.13
2022-09-05T10:28:06.407Z,74997.84
2022-09-05T10:33:03.796Z,74993.75
2022-09-05T10:35:10.517Z,74969.31
2022-09-05T10:36:34.296Z,74948.91
2022-09-05T10:39:17.890Z,74918.34
2022-09-05T10:41:50.043Z,74897.97
2022-09-05T10:44:29.487Z,74893.91
2022-09-05T10:47:09.416Z,74900.00
2022-09-05T10:49:45.059Z,74887.78
2022-09-05T10:52:19.712Z,74887.78
2022-09-05T10:55:14.778Z,74851.09
2022-09-05T10:57:57.295Z,74820.53
2022-09-05T11:02:18.937Z,74798.09
2022-09-05T11:03:45.801Z,74777.72
2022-09-05T11:06:24.895Z,74753.28
2022-09-05T11:09:04.505Z,74751.22
2022-09-05T11:11:45.896Z,74736.97
2022-09-05T11:14:34.853Z,74712.50
2022-09-05T11:17:14.106Z,74716.59
2022-09-05T11:19:46.063Z,74702.31
2022-09-05T11:22:23.671Z,74671.75
2022-09-05T11:24:56.603Z,74710.47
2022-09-05T11:27:32.702Z,74757.34
2022-09-05T11:30:05.787Z,74798.09
2022-09-05T11:39:03.725Z,74798.09
2022-09-05T11:39:48.060Z,74810.34
2022-09-05T11:40:26.373Z,74830.72
2022-09-05T11:42:11.057Z,74802.19
2022-09-05T11:44:57.446Z,74818.47
2022-09-05T11:48:03.828Z,74769.56
2022-09-05T11:51:33.656Z,74757.34
2022-09-05T11:54:22.699Z,74794.03
2022-09-05T11:57:32.293Z,74818.47
2022-09-05T12:00:31.301Z,74802.19
2022-09-05T12:03:59.236Z,74749.19
2022-09-05T12:07:15.621Z,74724.75
2022-09-05T12:10:04.781Z,74679.91
2022-09-05T12:12:41.574Z,74671.75
2022-09-05T12:15:24.865Z,74655.44
2022-09-05T12:18:28.862Z,74673.78
2022-09-05T12:21:10.243Z,74663.59
2022-09-05T12:24:28.462Z,74667.69
2022-09-05T12:27:36.006Z,74653.41
2022-09-05T12:29:48.646Z,74683.97
2022-09-05T12:34:06.491Z,74720.66
2022-09-05T12:36:11.564Z,74712.50
2022-09-05T12:40:53.734Z,74688.06
2022-09-05T12:41:44.277Z,74659.53
2022-09-05T12:44:41.358Z,74643.22
2022-09-05T12:47:19.594Z,74663.59
2022-09-05T12:50:03.199Z,74690.09
2022-09-05T12:52:46.479Z,74686.00
2022-09-05T12:55:26.055Z,74671.75
2022-09-05T13:02:56.469Z,74683.97
2022-09-05T13:03:05.549Z,74653.41
2022-09-05T13:04:15.745Z,74622.84
2022-09-05T13:06:40.485Z,74612.66
2022-09-05T13:09:12.274Z,74635.06
2022-09-05T13:14:53.443Z,74635.06
2022-09-05T13:15:11.411Z,74614.69
2022-09-05T13:17:47.194Z,74598.38
2022-09-05T13:20:20.193Z,74590.22
2022-09-05T13:22:50.981Z,74586.16
2022-09-05T13:25:25.030Z,74578.00
2022-09-05T13:27:59.154Z,74575.97
2022-09-05T13:33:06.009Z,74578.00
2022-09-05T13:38:20.332Z,74557.63
2022-09-05T13:38:30.692Z,74565.78
2022-09-05T13:39:06.367Z,74582.09
2022-09-05T13:41:37.398Z,74573.94
2022-09-05T13:44:27.601Z,74578.00
2022-09-05T13:47:10.544Z,74582.09
2022-09-05T13:50:05.186Z,74594.31
2022-09-05T13:52:39.716Z,74594.31
2022-09-05T13:55:33.537Z,74594.31
2022-09-05T13:58:07.356Z,74571.91
2022-09-05T14:01:06.330Z,74578.00
2022-09-05T14:03:55.655Z,74561.69
2022-09-05T14:10:21.528Z,74569.84
2022-09-05T14:13:00.842Z,74580.03
2022-09-05T14:15:42.561Z,74600.41
2022-09-05T14:18:22.216Z,74606.53
2022-09-05T14:21:15.456Z,74610.63
2022-09-05T14:23:53.569Z,74602.47
2022-09-05T14:26:30.303Z,74594.31
2022-09-05T14:29:16.981Z,74610.63
2022-09-05T14:37:48.385Z,74608.56
2022-09-05T14:37:53.759Z,74618.75
2022-09-05T14:38:09.286Z,74604.50
2022-09-05T14:41:25.471Z,74606.53
2022-09-05T14:44:23.625Z,74614.69
2022-09-05T14:47:06.357Z,74606.53
2022-09-05T14:49:49.574Z,74602.47
2022-09-05T14:52:23.541Z,74594.31
2022-09-05T15:02:43.483Z,74606.53
2022-09-05T15:03:00.402Z,74610.63
2022-09-05T15:06:37.796Z,74608.56
2022-09-05T15:12:20.312Z,74618.75
2022-09-05T15:12:21.502Z,74618.75
2022-09-05T15:15:16.052Z,74614.69
2022-09-05T15:17:49.190Z,74618.75
2022-09-05T15:20:33.707Z,74622.84
2022-09-05T15:23:11.221Z,74614.69
2022-09-05T15:25:47.601Z,74624.88
2022-09-05T15:28:33.944Z,74639.13
2022-09-05T15:31:08.019Z,74643.22
2022-09-05T15:33:37.432Z,74643.22
2022-09-05T15:36:07.167Z,74643.22
2022-09-05T15:38:56.094Z,74643.22
2022-09-05T15:41:26.260Z,74649.34
2022-09-05T15:44:03.463Z,74659.53
2022-09-05T15:46:49.211Z,74655.44
2022-09-05T15:49:32.199Z,74661.56
2022-09-05T15:52:03.607Z,74663.59
2022-09-05T15:54:38.592Z,74667.69
2022-09-05T15:57:17.669Z,74669.72
2022-09-05T15:59:52.595Z,74671.75
2022-09-05T16:02:24.758Z,74669.72
2022-09-05T16:10:28.505Z,74681.94
2022-09-05T16:10:34.101Z,74683.97
2022-09-05T16:11:59.491Z,74683.97
2022-09-05T16:14:17.768Z,74688.06
2022-09-05T16:23:11.602Z,74692.13
2022-09-05T16:23:29.890Z,74700.28
2022-09-05T16:23:33.826Z,74698.25
2022-09-05T16:25:31.258Z,74708.44
2022-09-05T16:28:01.945Z,74718.63
2022-09-05T16:30:32.625Z,74716.59
2022-09-05T16:33:05.336Z,74720.66
2022-09-05T16:35:36.982Z,74724.75
2022-09-05T16:38:14.497Z,74732.88
2022-09-05T16:40:52.857Z,74745.13
2022-09-05T16:43:24.442Z,74749.19
2022-09-05T16:45:58.375Z,74765.50
2022-09-05T16:48:37.790Z,74785.88
2022-09-05T16:51:15.989Z,74781.81
2022-09-05T16:53:58.191Z,74785.88
2022-09-05T16:56:31.083Z,74789.94
2022-09-05T16:59:03.386Z,74798.09
2022-09-05T17:02:05.863Z,74806.25
2022-09-05T17:05:03.396Z,74812.38
2022-09-05T17:07:50.071Z,74818.47
2022-09-05T17:10:21.291Z,74826.63
2022-09-05T17:12:52.891Z,74842.94
2022-09-05T17:15:26.160Z,74849.06
2022-09-05T17:18:21.815Z,74855.16
2022-09-05T17:20:51.946Z,74875.56
2022-09-05T17:29:18.959Z,74885.75
2022-09-05T17:29:26.823Z,74895.94
2022-09-05T17:29:32.962Z,74916.31
2022-09-05T17:31:59.302Z,74928.53
2022-09-05T17:35:17.856Z,74928.53
2022-09-05T17:38:13.660Z,74948.91
2022-09-05T17:41:12.975Z,74965.22
2022-09-05T17:43:42.495Z,74975.41
2022-09-05T17:46:19.169Z,74989.69
2022-09-05T17:49:20.086Z,75001.91
2022-09-05T17:52:29.893Z,75018.22
2022-09-05T17:54:59.520Z,75022.28
2022-09-05T17:57:41.359Z,75042.69
2022-09-05T18:00:42.985Z,75054.91
2022-09-05T18:06:39.872Z,75077.31
2022-09-05T18:09:58.971Z,75085.47
2022-09-05T18:13:13.839Z,75095.66
2022-09-05T18:16:11.682Z,75103.81
2022-09-05T18:19:28.764Z,75111.97
2022-09-05T18:21:49.760Z,75124.19
2022-09-05T18:30:25.877Z,75158.84
2022-09-05T18:33:54.066Z,75169.03
2022-09-05T18:36:40.111Z,75187.38
2022-09-05T18:39:43.500Z,75197.56
2022-09-05T18:42:33.924Z,75205.72
2022-09-05T18:45:14.636Z,75213.88
2022-09-05T18:47:57.344Z,75213.88
2022-09-05T18:50:32.161Z,75220.00
2022-09-05T18:53:08.999Z,75226.13
2022-09-05T18:56:14.148Z,75226.13
2022-09-05T18:58:51.512Z,75230.19
2022-09-05T19:01:37.112Z,75234.28
2022-09-05T19:04:11.559Z,75242.41
2022-09-05T19:07:07.747Z,75246.50
2022-09-05T19:09:39.264Z,75250.56
2022-09-05T19:12:33.589Z,75254.66
2022-09-05T19:15:06.861Z,75270.97
2022-09-05T19:17:39.646Z,75273.00
2022-09-05T19:20:32.246Z,75283.19
2022-09-05T19:23:11.244Z,75291.34
2022-09-05T19:25:43.353Z,75291.34
2022-09-05T19:36:27.979Z,75287.25
2022-09-05T19:36:46.601Z,75291.34
2022-09-05T19:37:06.830Z,75291.34
2022-09-05T19:37:29.593Z,75289.31
2022-09-05T19:39:43.376Z,75293.38
2022-09-05T19:47:31.655Z,75295.41
2022-09-05T19:47:38.916Z,75301.53
2022-09-05T19:50:56.219Z,75303.56
2022-09-05T19:53:26.219Z,75311.72
2022-09-05T19:55:54.806Z,75319.88
2022-09-05T19:58:24.956Z,75326.00
2022-09-05T20:01:03.590Z,75326.00
2022-09-05T20:03:39.512Z,75332.09
2022-09-05T20:06:26.781Z,75342.28
2022-09-05T20:09:15.501Z,75344.34
2022-09-05T20:11:49.555Z,75344.34
2022-09-05T20:14:29.211Z,75338.22
2022-09-05T20:17:18.457Z,75342.28
2022-09-05T20:19:46.757Z,75344.34
2022-09-05T20:22:48.999Z,75348.41
2022-09-05T20:25:19.821Z,75368.78
2022-09-05T20:28:09.866Z,75372.88
2022-09-05T20:30:43.518Z,75383.06
2022-09-05T20:33:18.266Z,75385.09
2022-09-05T20:41:13.982Z,75387.13
2022-09-05T20:43:25.331Z,75376.94
2022-09-05T20:43:30.781Z,75381.03
2022-09-05T20:44:22.778Z,75385.09
2022-09-05T20:54:05.378Z,75393.25
2022-09-05T20:54:07.944Z,75393.25
2022-09-05T20:54:19.915Z,75395.28
2022-09-05T20:55:41.396Z,75397.34
2022-09-05T20:58:15.122Z,75399.38
2022-09-05T21:01:24.388Z,75407.53
2022-09-05T21:03:38.597Z,75409.56
2022-09-05T21:06:29.731Z,75417.72
2022-09-05T21:09:24.349Z,75409.56
2022-09-05T21:11:54.282Z,75413.66
2022-09-05T21:14:27.073Z,75413.66
2022-09-05T21:16:59.516Z,75413.66
2022-09-05T21:19:30.843Z,75415.69
2022-09-05T21:22:08.645Z,75417.72
2022-09-05T21:24:37.217Z,75421.78
2022-09-05T21:27:17.609Z,75415.69
2022-09-05T21:29:53.041Z,75421.78
2022-09-05T21:32:38.054Z,75429.94
2022-09-05T21:35:33.916Z,75434.03
2022-09-05T21:38:01.511Z,75432.00
2022-09-05T21:40:29.594Z,75434.03
2022-09-05T21:47:34.093Z,75442.19
2022-09-05T21:47:48.553Z,75442.19
2022-09-05T21:48:38.803Z,75446.25
2022-09-05T21:51:09.278Z,75442.19
2022-09-05T21:58:17.349Z,75442.19
2022-09-05T21:59:20.060Z,75442.19
2022-09-05T21:59:36.620Z,75442.19
2022-09-05T22:02:08.530Z,75450.34
2022-09-05T22:04:41.736Z,75450.34
2022-09-05T22:07:13.806Z,75458.50
2022-09-05T22:09:41.776Z,75462.56
2022-09-05T22:12:30.452Z,75468.69
2022-09-05T22:15:26.907Z,75474.78
2022-09-05T22:17:48.208Z,75470.72
2022-09-05T22:20:21.111Z,75466.63
2022-09-05T22:22:56.240Z,75470.72
2022-09-05T22:25:28.452Z,75466.63
2022-09-05T22:28:06.357Z,75472.75
2022-09-05T22:30:35.410Z,75472.75
2022-09-05T22:33:05.419Z,75468.69
2022-09-05T22:35:34.183Z,75480.91
2022-09-05T22:38:06.005Z,75485.00
2022-09-05T22:40:37.285Z,75485.00
2022-09-05T22:43:07.828Z,75482.94
2022-09-05T22:45:37.707Z,75482.94
2022-09-05T22:48:10.232Z,75487.03
2022-09-05T22:50:38.814Z,75482.94
2022-09-05T22:53:08.463Z,75485.00
2022-09-05T22:55:36.877Z,75487.03
2022-09-05T22:58:05.181Z,75485.00
2022-09-05T23:00:34.654Z,75495.19
2022-09-05T23:03:04.523Z,75493.13
2022-09-05T23:05:34.346Z,75487.03
2022-09-05T23:08:04.491Z,75487.03
2022-09-05T23:10:32.961Z,75491.09
2022-09-05T23:13:04.553Z,75499.25
2022-09-05T23:15:32.532Z,75507.41
2022-09-05T23:18:02.036Z,75495.19
2022-09-05T23:20:32.215Z,75509.44
2022-09-05T23:23:04.586Z,75511.47
2022-09-05T23:25:32.873Z,75509.44
2022-09-05T23:28:05.181Z,75517.59
2022-09-05T23:30:33.089Z,75515.56
2022-09-05T23:33:00.936Z,75515.56
2022-09-05T23:35:28.830Z,75513.53
2022-09-05T23:37:56.833Z,75519.63
2022-09-05T23:40:26.711Z,75523.72
2022-09-05T23:42:55.565Z,75519.63
2022-09-05T23:45:24.247Z,75519.63
2022-09-05T23:47:52.627Z,75521.69
2022-09-05T23:53:17.597Z,75525.75
2022-09-05T23:55:46.818Z,75523.72
2022-09-05T23:58:16.087Z,75523.72
